createdAt,value
2023-05-20T00:02:29.788Z,15.09
2023-05-20T00:05:32.958Z,15.08
2023-05-20T00:08:36.379Z,15.03
2023-05-20T00:11:39.436Z,15.01
2023-05-20T00:14:42.820Z,15.01
2023-05-20T00:17:48.838Z,15.02
2023-05-20T00:20:53.657Z,15.06
2023-05-20T00:23:56.798Z,15.13
2023-05-20T00:27:00.125Z,15.16
2023-05-20T00:30:03.423Z,15.19
2023-05-20T00:33:06.793Z,15.17
2023-05-20T00:36:10.152Z,15.19
2023-05-20T00:39:13.501Z,15.19
2023-05-20T00:42:26.056Z,15.22
2023-05-20T00:45:31.748Z,15.20
2023-05-20T00:48:42.762Z,15.20
2023-05-20T00:51:48.949Z,15.14
2023-05-20T00:54:52.874Z,15.08
2023-05-20T00:57:59.158Z,15.11
2023-05-20T01:01:02.709Z,15.12
2023-05-20T01:04:06.173Z,15.12
2023-05-20T01:07:09.308Z,15.19
2023-05-20T01:10:15.780Z,15.23
2023-05-20T01:13:26.450Z,15.23
2023-05-20T01:16:32.029Z,15.03
2023-05-20T01:19:45.679Z,14.96
2023-05-20T01:22:56.066Z,14.92
2023-05-20T01:25:59.266Z,14.67
2023-05-20T01:29:04.870Z,14.66
2023-05-20T01:32:12.670Z,14.47
2023-05-20T01:35:17.322Z,14.39
2023-05-20T01:38:23.698Z,14.34
2023-05-20T01:41:28.996Z,14.23
2023-05-20T01:44:33.615Z,14.27
2023-05-20T01:47:36.687Z,14.18
2023-05-20T01:50:40.614Z,14.09
2023-05-20T01:53:44.420Z,14.03
2023-05-20T01:56:48.033Z,13.98
2023-05-20T01:59:51.515Z,13.97
2023-05-20T02:02:55.239Z,13.99
2023-05-20T02:05:58.597Z,13.92
2023-05-20T02:09:02.692Z,13.96
2023-05-20T02:12:06.295Z,13.95
2023-05-20T02:15:10.244Z,14.05
2023-05-20T02:18:14.344Z,14.18
2023-05-20T02:21:17.575Z,14.38
2023-05-20T02:24:21.966Z,14.51
2023-05-20T02:27:29.360Z,14.58
2023-05-20T02:30:36.575Z,14.65
2023-05-20T02:33:43.652Z,14.64
2023-05-20T02:36:47.140Z,14.70
2023-05-20T02:39:50.668Z,14.66
2023-05-20T02:42:53.761Z,14.71
2023-05-20T02:45:56.913Z,14.63
2023-05-20T02:49:00.865Z,14.61
2023-05-20T02:52:04.633Z,14.61
2023-05-20T02:55:13.014Z,14.55
2023-05-20T02:58:17.560Z,14.49
2023-05-20T03:01:20.984Z,14.50
2023-05-20T03:04:26.444Z,14.49
2023-05-20T03:07:29.959Z,14.47
2023-05-20T03:10:34.087Z,14.48
2023-05-20T03:13:37.462Z,14.49
2023-05-20T03:16:44.358Z,14.44
2023-05-20T03:19:48.508Z,14.52
2023-05-20T03:22:53.564Z,14.60
2023-05-20T03:25:56.622Z,14.68
2023-05-20T03:28:59.870Z,14.74
2023-05-20T03:32:04.397Z,14.78
2023-05-20T03:35:08.834Z,14.78
2023-05-20T03:38:12.365Z,14.76
2023-05-20T03:41:16.197Z,14.80
2023-05-20T03:44:19.913Z,14.84
2023-05-20T03:47:23.481Z,14.89
2023-05-20T03:50:26.614Z,14.93
2023-05-20T03:53:30.030Z,14.97
2023-05-20T03:56:33.392Z,15.01
2023-05-20T03:59:37.125Z,15.08
2023-05-20T04:02:40.861Z,15.15
2023-05-20T04:05:44.416Z,15.20
2023-05-20T04:08:53.606Z,15.31
2023-05-20T04:11:57.893Z,15.32
2023-05-20T04:15:01.507Z,15.36
2023-05-20T04:18:08.602Z,15.38
2023-05-20T04:21:12.025Z,15.35
2023-05-20T04:24:18.360Z,15.38
2023-05-20T04:27:22.093Z,15.36
2023-05-20T04:30:26.148Z,15.43
2023-05-20T04:33:29.507Z,15.55
2023-05-20T04:36:32.894Z,15.69
2023-05-20T04:39:39.430Z,15.88
2023-05-20T04:42:44.987Z,15.89
2023-05-20T04:45:49.279Z,16.03
2023-05-20T04:48:53.971Z,16.05
2023-05-20T04:51:57.343Z,16.15
2023-05-20T04:55:04.337Z,16.23
2023-05-20T04:58:08.520Z,16.24
2023-05-20T05:01:11.642Z,16.23
2023-05-20T05:04:15.001Z,16.26
2023-05-20T05:07:18.164Z,16.34
2023-05-20T05:10:22.002Z,16.45
2023-05-20T05:13:26.170Z,16.57
2023-05-20T05:16:30.370Z,16.56
2023-05-20T05:19:35.375Z,16.68
2023-05-20T05:22:41.573Z,16.71
2023-05-20T05:25:44.837Z,16.77
2023-05-20T05:28:50.720Z,16.89
2023-05-20T05:31:54.413Z,17.00
2023-05-20T05:35:00.239Z,17.23
2023-05-20T05:38:07.324Z,17.26
2023-05-20T05:41:10.993Z,17.49
2023-05-20T05:44:15.557Z,17.60
2023-05-20T05:47:19.450Z,17.77
2023-05-20T05:50:23.608Z,18.00
2023-05-20T05:53:26.907Z,18.20
2023-05-20T05:56:30.223Z,18.22
2023-05-20T05:59:34.615Z,18.41
2023-05-20T06:02:38.008Z,18.61
2023-05-20T06:05:41.174Z,18.62
2023-05-20T06:08:44.395Z,18.48
2023-05-20T06:11:48.355Z,18.53
2023-05-20T06:14:51.356Z,18.71
2023-05-20T06:17:54.850Z,18.83
2023-05-20T06:20:58.850Z,18.98
2023-05-20T06:24:02.770Z,19.10
2023-05-20T06:27:06.617Z,19.26
2023-05-20T06:30:12.700Z,19.38
2023-05-20T06:33:15.683Z,19.69
2023-05-20T06:36:21.952Z,19.65
2023-05-20T06:39:25.533Z,19.74
2023-05-20T06:42:28.714Z,19.71
2023-05-20T06:45:39.932Z,19.68
2023-05-20T06:48:57.936Z,19.58
2023-05-20T06:52:01.149Z,19.71
2023-05-20T06:55:06.220Z,19.83
2023-05-20T06:58:11.337Z,19.80
2023-05-20T07:01:17.918Z,19.79
2023-05-20T07:04:22.622Z,19.87
2023-05-20T07:07:26.102Z,20.05
2023-05-20T07:10:29.988Z,20.01
2023-05-20T07:13:35.904Z,20.09
2023-05-20T07:16:39.169Z,20.33
2023-05-20T07:19:42.774Z,20.38
2023-05-20T07:22:46.909Z,20.42
2023-05-20T07:26:07.461Z,20.54
2023-05-20T07:29:10.736Z,20.69
2023-05-20T07:32:15.840Z,20.62
2023-05-20T07:35:19.361Z,20.67
2023-05-20T07:38:22.897Z,20.74
2023-05-20T07:41:33.764Z,20.72
2023-05-20T07:44:36.818Z,20.68
2023-05-20T07:47:41.213Z,20.86
2023-05-20T07:50:44.939Z,20.96
2023-05-20T07:53:49.063Z,21.04
2023-05-20T07:56:53.032Z,21.10
2023-05-20T07:59:59.562Z,21.15
2023-05-20T08:03:08.378Z,21.25
2023-05-20T08:06:38.864Z,21.27
2023-05-20T08:14:28.516Z,21.09
2023-05-20T08:17:32.561Z,21.09
2023-05-20T08:20:35.625Z,21.19
2023-05-20T08:23:40.542Z,21.14
2023-05-20T08:26:44.035Z,21.05
2023-05-20T08:29:47.141Z,21.15
2023-05-20T08:32:51.721Z,21.10
2023-05-20T08:35:54.775Z,21.07
2023-05-20T08:39:02.877Z,21.10
2023-05-20T08:42:11.688Z,21.13
2023-05-20T08:45:18.190Z,21.20
2023-05-20T08:48:23.679Z,21.48
2023-05-20T08:51:28.177Z,21.56
2023-05-20T08:54:46.377Z,21.66
2023-05-20T08:57:54.999Z,21.68
2023-05-20T09:00:59.141Z,21.56
2023-05-20T09:04:03.026Z,21.60
2023-05-20T09:07:06.591Z,21.58
2023-05-20T09:10:10.809Z,21.64
2023-05-20T09:13:13.730Z,21.90
2023-05-20T09:21:08.029Z,22.13
2023-05-20T09:24:11.123Z,22.01
2023-05-20T09:27:13.994Z,22.00
2023-05-20T09:30:20.982Z,21.95
2023-05-20T09:33:30.145Z,22.05
2023-05-20T09:36:35.276Z,22.17
2023-05-20T09:39:56.779Z,22.21
2023-05-20T09:43:03.979Z,22.28
2023-05-20T09:46:10.977Z,22.27
2023-05-20T09:49:14.726Z,22.23
2023-05-20T09:52:20.709Z,22.32
2023-05-20T09:55:25.306Z,22.41
2023-05-20T09:58:29.781Z,22.51
2023-05-20T10:01:32.845Z,22.77
2023-05-20T10:04:39.042Z,22.62
2023-05-20T10:07:52.256Z,22.64
2023-05-20T10:11:24.511Z,22.70
2023-05-20T10:15:00.249Z,22.60
2023-05-20T10:18:23.541Z,22.45
2023-05-20T10:21:26.613Z,22.46
2023-05-20T10:24:38.320Z,22.81
2023-05-20T10:27:48.425Z,22.92
2023-05-20T10:30:51.607Z,23.19
2023-05-20T10:34:00.244Z,23.45
2023-05-20T10:37:03.134Z,23.25
2023-05-20T10:40:14.439Z,23.50
2023-05-20T10:43:31.637Z,23.42
2023-05-20T10:46:48.745Z,23.64
2023-05-20T10:50:02.208Z,24.17
2023-05-20T10:53:18.797Z,24.59
2023-05-20T10:56:26.934Z,24.78
2023-05-20T10:59:32.749Z,24.77
2023-05-20T11:02:36.780Z,24.91
2023-05-20T11:05:41.852Z,25.01
2023-05-20T11:08:46.245Z,25.18
2023-05-20T11:11:50.675Z,25.30
2023-05-20T11:14:54.298Z,25.43
2023-05-20T11:17:59.929Z,25.51
2023-05-20T11:21:03.226Z,25.65
2023-05-20T11:24:07.158Z,25.39
2023-05-20T11:27:13.065Z,25.19
2023-05-20T11:30:17.320Z,25.35
2023-05-20T11:33:20.617Z,25.37
2023-05-20T11:36:28.011Z,25.40
2023-05-20T11:39:31.404Z,25.45
2023-05-20T11:42:35.271Z,25.42
2023-05-20T11:45:45.955Z,25.30
2023-05-20T11:48:56.014Z,25.42
2023-05-20T11:51:59.453Z,25.31
2023-05-20T11:55:12.117Z,25.45
2023-05-20T11:58:23.584Z,25.46
2023-05-20T12:01:30.292Z,25.39
2023-05-20T12:04:33.459Z,25.44
2023-05-20T12:07:36.997Z,25.59
2023-05-20T12:10:40.232Z,25.50
2023-05-20T12:13:43.331Z,25.88
2023-05-20T12:16:46.499Z,25.95
2023-05-20T12:19:49.595Z,26.04
2023-05-20T12:22:52.897Z,26.09
2023-05-20T12:25:56.125Z,25.94
2023-05-20T12:28:59.081Z,26.09
2023-05-20T12:32:02.612Z,26.22
2023-05-20T12:35:06.006Z,26.08
2023-05-20T12:42:51.502Z,26.00
2023-05-20T12:45:54.920Z,26.05
2023-05-20T12:49:53.867Z,26.01
2023-05-20T12:53:06.633Z,26.13
2023-05-20T12:56:09.604Z,25.97
2023-05-20T12:59:12.553Z,26.27
2023-05-20T13:02:15.847Z,26.18
2023-05-20T13:05:19.385Z,26.08
2023-05-20T13:08:22.500Z,26.13
2023-05-20T13:11:25.849Z,26.05
2023-05-20T13:14:29.712Z,25.83
2023-05-20T13:17:32.841Z,25.77
2023-05-20T13:20:37.513Z,25.82
2023-05-20T13:23:41.830Z,25.71
2023-05-20T13:26:45.826Z,25.66
2023-05-20T13:29:49.224Z,25.60
2023-05-20T13:32:52.392Z,25.50
2023-05-20T13:35:55.417Z,25.46
2023-05-20T13:38:58.494Z,25.46
2023-05-20T13:42:01.424Z,25.38
2023-05-20T13:45:05.047Z,25.41
2023-05-20T13:48:08.350Z,25.12
2023-05-20T13:51:14.396Z,25.16
2023-05-20T13:54:17.821Z,25.09
2023-05-20T13:57:21.182Z,24.96
2023-05-20T14:00:24.401Z,24.85
2023-05-20T14:03:27.694Z,24.92
2023-05-20T14:06:32.062Z,25.05
2023-05-20T14:09:35.492Z,24.95
2023-05-20T14:12:38.798Z,24.95
2023-05-20T14:15:41.913Z,24.89
2023-05-20T14:18:45.071Z,24.79
2023-05-20T14:21:48.602Z,24.79
2023-05-20T14:24:51.854Z,24.90
2023-05-20T14:27:55.132Z,24.87
2023-05-20T14:30:58.384Z,24.76
2023-05-20T14:34:01.621Z,24.79
2023-05-20T14:37:09.972Z,24.88
2023-05-20T14:40:16.943Z,24.78
2023-05-20T14:43:23.397Z,24.67
2023-05-20T14:46:26.637Z,24.53
2023-05-20T14:49:29.776Z,24.58
2023-05-20T14:52:32.717Z,24.62
2023-05-20T14:55:35.798Z,24.68
2023-05-20T14:58:39.080Z,24.70
2023-05-20T15:01:42.264Z,24.63
2023-05-20T15:04:47.995Z,24.66
2023-05-20T15:07:51.706Z,24.46
2023-05-20T15:10:54.799Z,24.36
2023-05-20T15:13:59.095Z,24.26
2023-05-20T15:17:02.204Z,24.26
2023-05-20T15:20:05.936Z,24.29
2023-05-20T15:23:09.050Z,24.29
2023-05-20T15:26:15.034Z,24.33
2023-05-20T15:29:20.371Z,24.38
2023-05-20T15:32:23.967Z,24.41
2023-05-20T15:35:27.334Z,24.36
2023-05-20T15:38:31.124Z,24.27
2023-05-20T15:41:34.852Z,24.22
2023-05-20T15:44:37.792Z,24.20
2023-05-20T15:47:41.110Z,24.13
2023-05-20T15:50:44.458Z,24.12
2023-05-20T15:53:47.378Z,24.07
2023-05-20T15:56:50.508Z,24.03
2023-05-20T15:59:53.474Z,23.99
2023-05-20T16:02:56.767Z,23.88
2023-05-20T16:06:01.537Z,23.95
2023-05-20T16:09:07.778Z,23.99
2023-05-20T16:12:12.367Z,23.96
2023-05-20T16:15:15.830Z,23.93
2023-05-20T16:18:23.225Z,23.92
2023-05-20T16:21:26.548Z,23.88
2023-05-20T16:24:29.849Z,23.81
2023-05-20T16:27:32.933Z,23.87
2023-05-20T16:30:36.133Z,23.90
2023-05-20T16:33:39.242Z,23.89
2023-05-20T16:36:42.350Z,23.76
2023-05-20T16:39:45.670Z,23.72
2023-05-20T16:42:48.924Z,23.62
2023-05-20T16:45:52.118Z,23.55
2023-05-20T16:48:55.774Z,23.41
2023-05-20T16:51:59.282Z,23.33
2023-05-20T16:55:04.020Z,23.18
2023-05-20T16:58:08.228Z,23.03
2023-05-20T17:01:11.394Z,22.99
2023-05-20T17:04:14.708Z,22.83
2023-05-20T17:07:20.478Z,22.72
2023-05-20T17:10:23.469Z,22.62
2023-05-20T17:13:26.612Z,22.51
2023-05-20T17:16:29.988Z,22.35
2023-05-20T17:19:33.115Z,22.28
2023-05-20T17:22:36.214Z,22.22
2023-05-20T17:25:39.218Z,22.27
2023-05-20T17:28:43.047Z,22.23
2023-05-20T17:31:46.623Z,22.13
2023-05-20T17:34:49.691Z,22.06
2023-05-20T17:37:53.723Z,21.94
2023-05-20T17:40:56.876Z,21.86
2023-05-20T17:44:01.690Z,21.75
2023-05-20T17:47:05.015Z,21.65
2023-05-20T17:50:10.421Z,21.61
2023-05-20T17:53:13.719Z,21.47
2023-05-20T17:56:17.183Z,21.36
2023-05-20T17:59:23.220Z,21.25
2023-05-20T18:02:26.705Z,21.13
2023-05-20T18:05:29.864Z,21.00
2023-05-20T18:08:36.034Z,20.87
2023-05-20T18:11:39.383Z,20.74
2023-05-20T18:14:42.460Z,20.61
2023-05-20T18:17:46.111Z,20.52
2023-05-20T18:20:49.193Z,20.44
2023-05-20T18:23:52.271Z,20.41
2023-05-20T18:26:55.304Z,20.33
2023-05-20T18:29:58.623Z,20.25
2023-05-20T18:33:01.608Z,20.20
2023-05-20T18:36:06.255Z,20.14
2023-05-20T18:39:10.202Z,20.13
2023-05-20T18:42:13.280Z,20.12
2023-05-20T18:45:16.751Z,20.05
2023-05-20T18:48:26.638Z,20.02
2023-05-20T18:51:33.376Z,20.01
2023-05-20T18:54:37.781Z,19.98
2023-05-20T18:57:41.004Z,19.94
2023-05-20T19:00:44.399Z,19.91
2023-05-20T19:03:47.856Z,19.91
2023-05-20T19:06:53.004Z,19.81
2023-05-20T19:09:57.026Z,19.74
2023-05-20T19:13:00.178Z,19.70
2023-05-20T19:16:03.369Z,19.65
2023-05-20T19:19:06.608Z,19.69
2023-05-20T19:22:12.704Z,19.73
2023-05-20T19:25:17.185Z,19.82
2023-05-20T19:28:20.845Z,19.86
2023-05-20T19:31:23.934Z,19.79
2023-05-20T19:34:27.189Z,19.78
2023-05-20T19:37:31.168Z,19.73
2023-05-20T19:40:35.909Z,19.69
2023-05-20T19:43:39.005Z,19.66
2023-05-20T19:46:42.637Z,19.66
2023-05-20T19:49:45.997Z,19.60
2023-05-20T19:52:49.031Z,19.55
2023-05-20T19:55:52.370Z,19.50
2023-05-20T19:58:55.608Z,19.46
2023-05-20T20:02:03.049Z,19.36
2023-05-20T20:05:07.587Z,19.29
2023-05-20T20:08:11.003Z,19.21
2023-05-20T20:11:14.228Z,19.16
2023-05-20T20:14:21.661Z,19.04
2023-05-20T20:17:25.038Z,19.00
2023-05-20T20:20:29.649Z,18.88
2023-05-20T20:23:33.230Z,18.84
2023-05-20T20:26:36.826Z,18.85
2023-05-20T20:29:41.493Z,18.75
2023-05-20T20:32:44.660Z,18.70
2023-05-20T20:35:48.779Z,18.71
2023-05-20T20:38:54.423Z,18.68
2023-05-20T20:41:59.034Z,18.62
2023-05-20T20:45:02.643Z,18.57
2023-05-20T20:48:08.157Z,18.61
2023-05-20T20:51:15.412Z,18.54
2023-05-20T20:54:18.771Z,18.46
2023-05-20T20:57:22.205Z,18.47
2023-05-20T21:03:54.634Z,18.34
2023-05-20T21:05:48.770Z,18.38
2023-05-20T21:07:02.110Z,18.27
2023-05-20T21:10:09.833Z,18.24
2023-05-20T21:13:12.850Z,18.27
2023-05-20T21:16:15.849Z,18.26
2023-05-20T21:19:21.513Z,18.20
2023-05-20T21:22:24.523Z,18.30
2023-05-20T21:25:27.505Z,18.31
2023-05-20T21:28:30.532Z,18.34
2023-05-20T21:31:34.016Z,18.35
2023-05-20T21:34:37.206Z,18.36
2023-05-20T21:37:40.560Z,18.39
2023-05-20T21:40:43.585Z,18.34
2023-05-20T21:43:46.702Z,18.37
2023-05-20T21:46:49.806Z,18.43
2023-05-20T21:49:53.161Z,18.43
2023-05-20T21:52:56.335Z,18.50
2023-05-20T21:55:59.713Z,18.47
2023-05-20T21:59:02.738Z,18.45
2023-05-20T22:02:06.361Z,18.50
2023-05-20T22:05:09.846Z,18.41
2023-05-20T22:08:13.407Z,18.44
2023-05-20T22:11:16.589Z,18.36
2023-05-20T22:14:19.800Z,18.36
2023-05-20T22:17:24.217Z,18.27
2023-05-20T22:20:28.923Z,18.13
2023-05-20T22:23:32.054Z,17.96
2023-05-20T22:26:35.430Z,17.93
2023-05-20T22:29:38.603Z,17.92
2023-05-20T22:32:41.737Z,17.86
2023-05-20T22:35:44.795Z,17.90
2023-05-20T22:38:48.229Z,17.69
2023-05-20T22:41:51.070Z,17.67
2023-05-20T22:44:53.962Z,17.62
2023-05-20T22:47:57.255Z,17.63
2023-05-20T22:51:01.306Z,17.62
2023-05-20T22:54:04.534Z,17.57
2023-05-20T22:57:07.790Z,17.47
2023-05-20T23:00:15.184Z,17.33
2023-05-20T23:03:18.079Z,17.30
2023-05-20T23:06:22.838Z,17.35
2023-05-20T23:09:26.020Z,17.23
2023-05-20T23:12:29.268Z,17.23
2023-05-20T23:15:32.728Z,17.24
2023-05-20T23:18:36.410Z,17.24
2023-05-20T23:21:40.019Z,17.20
2023-05-20T23:24:43.551Z,17.20
2023-05-20T23:27:46.736Z,17.24
2023-05-20T23:31:10.346Z,17.22
2023-05-20T23:34:14.054Z,17.25
2023-05-20T23:37:17.568Z,17.28
2023-05-20T23:40:20.839Z,17.33
2023-05-20T23:43:23.931Z,17.36
2023-05-20T23:46:27.465Z,17.32
2023-05-20T23:49:32.208Z,17.33
2023-05-20T23:52:35.481Z,17.30
2023-05-20T23:55:38.744Z,17.33
2023-05-20T23:58:41.938Z,17.33
